OAL951 LFPG-LGAV
Flight info
| Callsign | OAL951 |
|---|---|
| Flight time | 2h 40m |
| Altitude | 35000 |
| Route | LANVI DCT DEVDI DCT RIPUS DCT RESIA DCT ROTAR DCT SPL DCT KOFER DCT PINDO DCT PIKOS UL607 XORKI |
| Aircraft | B738/M-SDE2E3FGHIRWXY/LB1 |
Departure
| Time | 2026-05-04 13:06 |
|---|---|
| Airport | Charles de Gaulle International Airport (LFPG) |
Arrival
| Time | 2026-05-04 15:46 |
|---|---|
| Airport | Athens Eleftherios Venizelos International Airport (LGAV) |
| Time | Latitude | Longitude | Altitude | Speed | Heading |
|---|---|---|---|---|---|
| 2026-05-04 12:35 | 49.00178 | 2.56364 | 359 ft | 0 kts | 341° |
| 2026-05-04 12:56 | 49.00173 | 2.56367 | 362 ft | 2 kts | 341° |
| 2026-05-04 12:56 | 49.00160 | 2.56373 | 363 ft | 2 kts | 341° |
| 2026-05-04 12:56 | 49.00147 | 2.56380 | 363 ft | 2 kts | 341° |
| 2026-05-04 12:56 | 49.00135 | 2.56387 | 361 ft | 2 kts | 341° |
| 2026-05-04 12:57 | 49.00122 | 2.56393 | 361 ft | 2 kts | 338° |
| 2026-05-04 12:57 | 49.00112 | 2.56405 | 359 ft | 2 kts | 285° |
| 2026-05-04 12:57 | 49.00111 | 2.56414 | 359 ft | 0 kts | 268° |
| 2026-05-04 13:00 | 49.00110 | 2.56409 | 353 ft | 2 kts | 261° |
| 2026-05-04 13:00 | 49.00101 | 2.56348 | 361 ft | 10 kts | 259° |
| 2026-05-04 13:00 | 49.00091 | 2.56206 | 356 ft | 15 kts | 264° |
| 2026-05-04 13:00 | 49.00083 | 2.56055 | 359 ft | 14 kts | 265° |
| 2026-05-04 13:01 | 49.00077 | 2.55925 | 353 ft | 11 kts | 265° |
| 2026-05-04 13:01 | 49.00073 | 2.55809 | 353 ft | 11 kts | 269° |
| 2026-05-04 13:01 | 49.00070 | 2.55696 | 353 ft | 11 kts | 260° |
| 2026-05-04 13:01 | 49.00039 | 2.55597 | 358 ft | 10 kts | 237° |
| 2026-05-04 13:02 | 48.99988 | 2.55532 | 353 ft | 10 kts | 185° |
| 2026-05-04 13:02 | 48.99923 | 2.55563 | 355 ft | 10 kts | 157° |
| 2026-05-04 13:02 | 48.99870 | 2.55625 | 357 ft | 10 kts | 131° |
| 2026-05-04 13:02 | 48.99839 | 2.55711 | 355 ft | 9 kts | 110° |
| 2026-05-04 13:03 | 48.99823 | 2.55804 | 357 ft | 9 kts | 106° |
| 2026-05-04 13:03 | 48.99806 | 2.55895 | 358 ft | 9 kts | 106° |
| 2026-05-04 13:03 | 48.99791 | 2.55983 | 355 ft | 9 kts | 117° |
| 2026-05-04 13:03 | 48.99744 | 2.56029 | 356 ft | 8 kts | 175° |
| 2026-05-04 13:04 | 48.99723 | 2.56031 | 353 ft | 0 kts | 175° |
| 2026-05-04 13:05 | 48.99722 | 2.56031 | 353 ft | 1 kts | 175° |
| 2026-05-04 13:05 | 48.99673 | 2.56038 | 356 ft | 13 kts | 175° |
| 2026-05-04 13:05 | 48.99616 | 2.56138 | 355 ft | 14 kts | 95° |
| 2026-05-04 13:05 | 48.99627 | 2.56364 | 362 ft | 47 kts | 85° |
| 2026-05-04 13:06 | 48.99676 | 2.57278 | 351 ft | 124 kts | 85° |
| 2026-05-04 13:06 | 48.99761 | 2.58906 | 490 ft | 175 kts | 85° |
| 2026-05-04 13:06 | 48.99788 | 2.60729 | 1459 ft | 167 kts | 91° |
| 2026-05-04 13:06 | 48.99805 | 2.62527 | 2325 ft | 176 kts | 86° |
| 2026-05-04 13:07 | 48.99925 | 2.64539 | 2628 ft | 208 kts | 84° |
| 2026-05-04 13:07 | 49.00089 | 2.66835 | 2974 ft | 223 kts | 83° |
| 2026-05-04 13:07 | 49.00282 | 2.69244 | 3446 ft | 237 kts | 83° |
| 2026-05-04 13:07 | 49.00479 | 2.71868 | 3800 ft | 260 kts | 85° |
| 2026-05-04 13:08 | 49.00620 | 2.74652 | 4577 ft | 265 kts | 86° |
| 2026-05-04 13:08 | 49.00746 | 2.77463 | 5456 ft | 268 kts | 89° |
| 2026-05-04 13:08 | 49.00593 | 2.80309 | 6295 ft | 274 kts | 100° |
| 2026-05-04 13:08 | 49.00253 | 2.83180 | 7121 ft | 276 kts | 101° |
| 2026-05-04 13:09 | 48.99908 | 2.86056 | 7955 ft | 277 kts | 101° |
| 2026-05-04 13:09 | 48.99580 | 2.88969 | 8721 ft | 281 kts | 100° |
| 2026-05-04 13:09 | 48.99260 | 2.91922 | 9501 ft | 284 kts | 100° |
| 2026-05-04 13:09 | 48.98943 | 2.94913 | 10228 ft | 289 kts | 100° |
| 2026-05-04 13:10 | 48.98636 | 2.98045 | 10471 ft | 311 kts | 98° |
| 2026-05-04 13:10 | 48.98350 | 3.01438 | 10665 ft | 334 kts | 97° |
| 2026-05-04 13:10 | 48.98058 | 3.05025 | 11051 ft | 347 kts | 97° |
| 2026-05-04 13:10 | 48.97760 | 3.08707 | 11684 ft | 353 kts | 97° |
| 2026-05-04 13:11 | 48.97453 | 3.12435 | 12349 ft | 357 kts | 98° |
| 2026-05-04 13:11 | 48.97140 | 3.16210 | 13101 ft | 361 kts | 98° |
| 2026-05-04 13:11 | 48.96820 | 3.20012 | 13853 ft | 364 kts | 98° |
| 2026-05-04 13:11 | 48.96494 | 3.23864 | 14513 ft | 369 kts | 98° |
| 2026-05-04 13:12 | 48.96162 | 3.27755 | 15129 ft | 373 kts | 98° |
| 2026-05-04 13:12 | 48.95826 | 3.31685 | 15717 ft | 377 kts | 98° |
| 2026-05-04 13:12 | 48.95483 | 3.35664 | 16296 ft | 381 kts | 98° |
| 2026-05-04 13:12 | 48.95136 | 3.39678 | 16876 ft | 385 kts | 99° |
| 2026-05-04 13:13 | 48.94784 | 3.43740 | 17458 ft | 389 kts | 99° |
| 2026-05-04 13:13 | 48.94427 | 3.47843 | 18030 ft | 393 kts | 99° |
| 2026-05-04 13:13 | 48.94065 | 3.51988 | 18545 ft | 397 kts | 99° |
| 2026-05-04 13:13 | 48.93706 | 3.56181 | 18981 ft | 403 kts | 99° |
| 2026-05-04 13:14 | 48.93437 | 3.60441 | 19480 ft | 407 kts | 97° |
| 2026-05-04 13:14 | 48.93220 | 3.64739 | 20034 ft | 409 kts | 97° |
| 2026-05-04 13:14 | 48.93016 | 3.69066 | 20549 ft | 412 kts | 97° |
| 2026-05-04 13:14 | 48.92805 | 3.73426 | 21042 ft | 414 kts | 97° |
| 2026-05-04 13:15 | 48.92584 | 3.77806 | 21520 ft | 417 kts | 98° |
| 2026-05-04 13:15 | 48.92353 | 3.82216 | 21997 ft | 420 kts | 98° |
| 2026-05-04 13:15 | 48.92114 | 3.86663 | 22463 ft | 423 kts | 98° |
| 2026-05-04 13:15 | 48.91869 | 3.91136 | 22935 ft | 426 kts | 98° |
| 2026-05-04 13:16 | 48.91620 | 3.95635 | 23382 ft | 428 kts | 98° |
| 2026-05-04 13:16 | 48.91368 | 4.00161 | 23780 ft | 431 kts | 98° |
| 2026-05-04 13:16 | 48.91114 | 4.04708 | 24163 ft | 433 kts | 99° |
| 2026-05-04 13:16 | 48.90860 | 4.09222 | 24535 ft | 435 kts | 99° |
| 2026-05-04 13:17 | 48.90601 | 4.13808 | 24916 ft | 437 kts | 99° |
| 2026-05-04 13:17 | 48.90337 | 4.18424 | 25282 ft | 439 kts | 99° |
| 2026-05-04 13:17 | 48.89891 | 4.22998 | 25607 ft | 435 kts | 111° |
| 2026-05-04 13:17 | 48.88623 | 4.27106 | 25960 ft | 428 kts | 124° |
| 2026-05-04 13:18 | 48.87134 | 4.31026 | 26357 ft | 429 kts | 124° |
| 2026-05-04 13:18 | 48.85648 | 4.34971 | 26694 ft | 431 kts | 124° |
| 2026-05-04 13:18 | 48.84163 | 4.38948 | 26976 ft | 434 kts | 124° |
| 2026-05-04 13:18 | 48.82675 | 4.42961 | 27245 ft | 438 kts | 124° |
| 2026-05-04 13:19 | 48.81183 | 4.47003 | 27602 ft | 440 kts | 124° |
| 2026-05-04 13:19 | 48.79690 | 4.51057 | 27948 ft | 441 kts | 124° |
| 2026-05-04 13:19 | 48.78193 | 4.55124 | 28293 ft | 442 kts | 124° |
| 2026-05-04 13:19 | 48.76691 | 4.59198 | 28604 ft | 444 kts | 124° |
| 2026-05-04 13:20 | 48.75179 | 4.63293 | 28898 ft | 446 kts | 124° |
| 2026-05-04 13:20 | 48.73660 | 4.67400 | 29195 ft | 447 kts | 124° |
| 2026-05-04 13:20 | 48.72135 | 4.71515 | 29505 ft | 449 kts | 124° |
| 2026-05-04 13:20 | 48.70605 | 4.75638 | 29812 ft | 450 kts | 124° |
| 2026-05-04 13:21 | 48.69071 | 4.79764 | 30174 ft | 448 kts | 124° |
| 2026-05-04 13:21 | 48.67544 | 4.83869 | 30526 ft | 448 kts | 125° |
| 2026-05-04 13:21 | 48.66015 | 4.87970 | 30842 ft | 448 kts | 125° |
| 2026-05-04 13:21 | 48.64487 | 4.92061 | 31177 ft | 447 kts | 125° |
| 2026-05-04 13:22 | 48.62963 | 4.96134 | 31523 ft | 445 kts | 125° |
| 2026-05-04 13:22 | 48.61434 | 5.00214 | 31849 ft | 444 kts | 125° |
| 2026-05-04 13:22 | 48.59913 | 5.04266 | 32147 ft | 444 kts | 125° |
| 2026-05-04 13:22 | 48.58389 | 5.08320 | 32446 ft | 443 kts | 125° |
| 2026-05-04 13:23 | 48.56957 | 5.12124 | 32741 ft | 442 kts | 125° |
| 2026-05-04 13:23 | 48.55439 | 5.16151 | 33042 ft | 441 kts | 125° |
| 2026-05-04 13:23 | 48.53923 | 5.20164 | 33301 ft | 441 kts | 125° |
| 2026-05-04 13:23 | 48.52404 | 5.24182 | 33551 ft | 441 kts | 125° |
| 2026-05-04 13:24 | 48.50967 | 5.27975 | 33853 ft | 440 kts | 125° |
| 2026-05-04 13:24 | 48.49450 | 5.31977 | 34138 ft | 439 kts | 125° |
| 2026-05-04 13:24 | 48.47930 | 5.35977 | 34314 ft | 440 kts | 125° |
| 2026-05-04 13:25 | 48.44875 | 5.43997 | 34646 ft | 442 kts | 125° |
| 2026-05-04 13:25 | 48.43382 | 5.47909 | 34853 ft | 442 kts | 125° |
| 2026-05-04 13:25 | 48.41889 | 5.51819 | 34985 ft | 443 kts | 125° |
| 2026-05-04 13:25 | 48.40344 | 5.55853 | 34976 ft | 446 kts | 125° |
| 2026-05-04 13:26 | 48.37349 | 5.63667 | 34981 ft | 444 kts | 125° |
| 2026-05-04 13:26 | 48.34285 | 5.71638 | 35007 ft | 444 kts | 126° |
| 2026-05-04 13:27 | 48.31192 | 5.79659 | 35014 ft | 444 kts | 124° |
| 2026-05-04 13:27 | 48.28392 | 5.87978 | 35012 ft | 448 kts | 120° |
| 2026-05-04 13:28 | 48.25776 | 5.96465 | 35027 ft | 448 kts | 120° |
| 2026-05-04 13:28 | 48.23142 | 6.04925 | 35015 ft | 447 kts | 121° |
| 2026-05-04 13:29 | 48.20601 | 6.12931 | 35021 ft | 448 kts | 121° |
| 2026-05-04 13:29 | 48.17933 | 6.21254 | 35013 ft | 448 kts | 121° |
| 2026-05-04 13:30 | 48.15298 | 6.29436 | 35015 ft | 449 kts | 121° |
| 2026-05-04 13:30 | 48.12573 | 6.37876 | 35024 ft | 450 kts | 121° |
| 2026-05-04 13:31 | 48.09840 | 6.46317 | 35012 ft | 451 kts | 121° |
| 2026-05-04 13:31 | 48.07095 | 6.54764 | 35021 ft | 452 kts | 121° |
| 2026-05-04 13:32 | 48.04344 | 6.63203 | 35021 ft | 454 kts | 121° |
| 2026-05-04 13:32 | 48.01571 | 6.71680 | 35016 ft | 455 kts | 121° |
| 2026-05-04 13:33 | 47.98861 | 6.79940 | 35010 ft | 455 kts | 121° |
| 2026-05-04 13:33 | 47.96086 | 6.88369 | 35004 ft | 455 kts | 121° |
| 2026-05-04 13:34 | 47.93475 | 6.96276 | 34995 ft | 455 kts | 121° |
| 2026-05-04 13:34 | 47.90671 | 7.04741 | 35006 ft | 456 kts | 121° |
| 2026-05-04 13:35 | 47.86525 | 7.17202 | 34982 ft | 457 kts | 121° |
| 2026-05-04 13:36 | 47.83803 | 7.25355 | 34996 ft | 456 kts | 121° |
| 2026-05-04 13:36 | 47.80983 | 7.33772 | 34989 ft | 455 kts | 121° |
| 2026-05-04 13:37 | 47.78159 | 7.42174 | 34989 ft | 455 kts | 121° |
| 2026-05-04 13:37 | 47.75322 | 7.50591 | 34992 ft | 456 kts | 121° |
| 2026-05-04 13:38 | 47.72160 | 7.58677 | 34974 ft | 449 kts | 131° |
| 2026-05-04 13:38 | 47.68411 | 7.66105 | 34993 ft | 450 kts | 131° |
| 2026-05-04 13:39 | 47.64633 | 7.73517 | 35004 ft | 452 kts | 131° |
| 2026-05-04 13:39 | 47.60860 | 7.81019 | 34987 ft | 454 kts | 131° |
| 2026-05-04 13:40 | 47.57731 | 7.87275 | 34995 ft | 455 kts | 131° |
| 2026-05-04 13:42 | 47.40496 | 8.21523 | 34974 ft | 455 kts | 131° |
| 2026-05-04 13:42 | 47.36709 | 8.28989 | 34973 ft | 454 kts | 131° |
| 2026-05-04 13:43 | 47.32922 | 8.36435 | 34959 ft | 453 kts | 131° |
| 2026-05-04 13:43 | 47.29142 | 8.43852 | 34988 ft | 453 kts | 131° |
| 2026-05-04 13:44 | 47.25357 | 8.51262 | 34990 ft | 453 kts | 130° |
| 2026-05-04 13:44 | 47.21633 | 8.58751 | 34984 ft | 454 kts | 130° |
| 2026-05-04 13:45 | 47.17928 | 8.66280 | 34983 ft | 454 kts | 130° |
| 2026-05-04 13:45 | 47.14211 | 8.73795 | 34975 ft | 454 kts | 130° |
| 2026-05-04 13:46 | 47.10486 | 8.81288 | 34997 ft | 455 kts | 130° |
| 2026-05-04 13:46 | 47.06743 | 8.88787 | 34998 ft | 456 kts | 130° |
| 2026-05-04 13:47 | 47.02987 | 8.96289 | 35003 ft | 456 kts | 130° |
| 2026-05-04 13:47 | 46.99225 | 9.03786 | 35003 ft | 457 kts | 130° |
| 2026-05-04 13:48 | 46.95455 | 9.11279 | 35000 ft | 457 kts | 129° |
| 2026-05-04 13:48 | 46.91682 | 9.18758 | 35007 ft | 457 kts | 130° |
| 2026-05-04 13:49 | 46.87899 | 9.26235 | 35011 ft | 458 kts | 130° |
| 2026-05-04 13:49 | 46.84111 | 9.33705 | 35017 ft | 457 kts | 130° |
| 2026-05-04 13:50 | 46.80322 | 9.41153 | 35026 ft | 457 kts | 130° |
| 2026-05-04 13:50 | 46.76535 | 9.48579 | 35058 ft | 456 kts | 130° |
| 2026-05-04 13:51 | 46.72746 | 9.55990 | 35090 ft | 455 kts | 130° |
| 2026-05-04 13:51 | 46.68958 | 9.63378 | 35126 ft | 455 kts | 130° |
| 2026-05-04 13:52 | 46.63280 | 9.74417 | 35163 ft | 450 kts | 130° |
| 2026-05-04 13:53 | 46.59520 | 9.81704 | 35152 ft | 451 kts | 130° |
| 2026-05-04 13:53 | 46.55744 | 9.89002 | 35173 ft | 452 kts | 130° |
| 2026-05-04 13:54 | 46.50057 | 9.99961 | 35157 ft | 453 kts | 130° |
| 2026-05-04 13:55 | 46.44874 | 10.11314 | 35143 ft | 457 kts | 122° |
| 2026-05-04 13:55 | 46.40277 | 10.23371 | 35102 ft | 459 kts | 122° |
| 2026-05-04 13:56 | 46.37216 | 10.31279 | 35106 ft | 459 kts | 122° |
| 2026-05-04 13:57 | 46.32488 | 10.43289 | 35085 ft | 460 kts | 123° |
| 2026-05-04 13:58 | 46.26190 | 10.59162 | 35072 ft | 456 kts | 123° |
| 2026-05-04 13:58 | 46.21461 | 10.71026 | 35107 ft | 453 kts | 123° |
| 2026-05-04 13:59 | 46.18296 | 10.78938 | 35118 ft | 451 kts | 123° |
| 2026-05-04 14:00 | 46.13619 | 10.90589 | 35128 ft | 449 kts | 123° |
| 2026-05-04 14:00 | 46.08914 | 11.02259 | 35126 ft | 449 kts | 123° |
| 2026-05-04 14:01 | 46.05764 | 11.10043 | 35109 ft | 450 kts | 123° |
| 2026-05-04 14:02 | 46.01014 | 11.21740 | 35068 ft | 453 kts | 123° |
| 2026-05-04 14:02 | 45.97831 | 11.29555 | 35055 ft | 454 kts | 123° |
| 2026-05-04 14:03 | 45.94713 | 11.37185 | 35063 ft | 456 kts | 123° |
| 2026-05-04 14:03 | 45.91494 | 11.45044 | 35063 ft | 457 kts | 123° |
| 2026-05-04 14:04 | 45.86714 | 11.56669 | 35053 ft | 459 kts | 123° |
| 2026-05-04 14:04 | 45.83463 | 11.64549 | 35045 ft | 459 kts | 123° |
| 2026-05-04 14:05 | 45.78575 | 11.76355 | 35045 ft | 459 kts | 123° |
| 2026-05-04 14:06 | 45.75316 | 11.84199 | 35038 ft | 457 kts | 123° |
| 2026-05-04 14:06 | 45.72063 | 11.92006 | 35032 ft | 456 kts | 123° |
| 2026-05-04 14:07 | 45.68818 | 11.99773 | 35076 ft | 454 kts | 123° |
| 2026-05-04 14:07 | 45.65571 | 12.07520 | 35075 ft | 454 kts | 123° |
| 2026-05-04 14:08 | 45.62324 | 12.15247 | 35077 ft | 453 kts | 123° |
| 2026-05-04 14:08 | 45.59075 | 12.22959 | 35040 ft | 453 kts | 123° |
| 2026-05-04 14:09 | 45.54190 | 12.34512 | 35081 ft | 454 kts | 123° |
| 2026-05-04 14:10 | 45.49303 | 12.46024 | 35072 ft | 455 kts | 123° |
| 2026-05-04 14:10 | 45.45998 | 12.53783 | 35070 ft | 455 kts | 123° |
| 2026-05-04 14:11 | 45.42705 | 12.61494 | 35061 ft | 456 kts | 124° |
| 2026-05-04 14:11 | 45.37767 | 12.73016 | 35058 ft | 457 kts | 124° |
| 2026-05-04 14:12 | 45.34458 | 12.80711 | 35055 ft | 457 kts | 124° |
| 2026-05-04 14:13 | 45.29473 | 12.92268 | 35068 ft | 457 kts | 123° |
| 2026-05-04 14:13 | 45.26134 | 12.99954 | 35056 ft | 457 kts | 125° |
| 2026-05-04 14:14 | 45.22512 | 13.07359 | 35065 ft | 457 kts | 128° |
| 2026-05-04 14:14 | 45.16893 | 13.18269 | 35075 ft | 457 kts | 128° |
| 2026-05-04 14:15 | 45.09434 | 13.32869 | 35092 ft | 458 kts | 128° |
| 2026-05-04 14:16 | 45.03843 | 13.43828 | 35098 ft | 458 kts | 128° |
| 2026-05-04 14:17 | 44.98243 | 13.54759 | 35098 ft | 458 kts | 128° |
| 2026-05-04 14:18 | 44.92626 | 13.65678 | 35105 ft | 458 kts | 128° |
| 2026-05-04 14:19 | 44.85757 | 13.78976 | 35102 ft | 459 kts | 128° |
| 2026-05-04 14:19 | 44.81992 | 13.86240 | 35107 ft | 459 kts | 128° |
| 2026-05-04 14:20 | 44.77602 | 13.94684 | 35105 ft | 460 kts | 128° |
| 2026-05-04 14:20 | 44.74431 | 14.00769 | 35104 ft | 461 kts | 128° |
| 2026-05-04 14:21 | 44.68736 | 14.11662 | 35099 ft | 462 kts | 128° |
| 2026-05-04 14:21 | 44.64924 | 14.18934 | 35115 ft | 462 kts | 128° |
| 2026-05-04 14:22 | 44.61105 | 14.26199 | 35106 ft | 463 kts | 128° |
| 2026-05-04 14:22 | 44.57270 | 14.33474 | 35112 ft | 464 kts | 128° |
| 2026-05-04 14:23 | 44.51495 | 14.44397 | 35111 ft | 465 kts | 128° |
| 2026-05-04 14:24 | 44.47638 | 14.51673 | 35109 ft | 466 kts | 128° |
| 2026-05-04 14:24 | 44.43770 | 14.58949 | 35106 ft | 466 kts | 128° |
| 2026-05-04 14:25 | 44.39891 | 14.66224 | 35102 ft | 466 kts | 128° |
| 2026-05-04 14:25 | 44.34062 | 14.77125 | 35100 ft | 467 kts | 128° |
| 2026-05-04 14:26 | 44.30169 | 14.84383 | 35110 ft | 467 kts | 128° |
| 2026-05-04 14:26 | 44.26273 | 14.91629 | 35108 ft | 466 kts | 128° |
| 2026-05-04 14:27 | 44.22378 | 14.98855 | 35103 ft | 466 kts | 128° |
| 2026-05-04 14:27 | 44.18479 | 15.06070 | 35109 ft | 466 kts | 128° |
| 2026-05-04 14:28 | 44.14580 | 15.13273 | 35117 ft | 466 kts | 128° |
| 2026-05-04 14:28 | 44.10677 | 15.20457 | 35129 ft | 465 kts | 128° |
| 2026-05-04 14:29 | 44.02849 | 15.34813 | 35135 ft | 466 kts | 128° |
| 2026-05-04 14:30 | 43.98949 | 15.41943 | 35123 ft | 467 kts | 128° |
| 2026-05-04 14:31 | 43.93041 | 15.52708 | 35125 ft | 468 kts | 128° |
| 2026-05-04 14:32 | 43.85127 | 15.67066 | 35117 ft | 469 kts | 128° |
| 2026-05-04 14:32 | 43.81156 | 15.74247 | 35121 ft | 470 kts | 128° |
| 2026-05-04 14:33 | 43.77171 | 15.81430 | 35116 ft | 471 kts | 128° |
| 2026-05-04 14:33 | 43.73177 | 15.88613 | 35115 ft | 471 kts | 128° |
| 2026-05-04 14:34 | 43.69174 | 15.95795 | 35118 ft | 472 kts | 128° |
| 2026-05-04 14:34 | 43.65162 | 16.02979 | 35113 ft | 473 kts | 127° |
| 2026-05-04 14:35 | 43.61137 | 16.10169 | 35129 ft | 473 kts | 127° |
| 2026-05-04 14:35 | 43.57104 | 16.17351 | 35132 ft | 474 kts | 128° |
| 2026-05-04 14:36 | 43.53061 | 16.24538 | 35131 ft | 474 kts | 128° |
| 2026-05-04 14:36 | 43.48993 | 16.31696 | 35138 ft | 475 kts | 129° |
| 2026-05-04 14:37 | 43.44666 | 16.38582 | 35125 ft | 476 kts | 131° |
| 2026-05-04 14:37 | 43.40243 | 16.45350 | 35126 ft | 476 kts | 132° |
| 2026-05-04 14:38 | 43.35826 | 16.52137 | 35121 ft | 476 kts | 131° |
| 2026-05-04 14:38 | 43.31421 | 16.58952 | 35114 ft | 477 kts | 131° |
| 2026-05-04 14:39 | 43.27018 | 16.65771 | 35118 ft | 478 kts | 131° |
| 2026-05-04 14:39 | 43.22635 | 16.72546 | 35103 ft | 478 kts | 131° |
| 2026-05-04 14:40 | 43.15972 | 16.82813 | 35106 ft | 478 kts | 131° |
| 2026-05-04 14:40 | 43.11573 | 16.89567 | 35110 ft | 479 kts | 131° |
| 2026-05-04 14:41 | 43.07139 | 16.96360 | 35104 ft | 479 kts | 131° |
| 2026-05-04 14:42 | 42.98251 | 17.09927 | 35113 ft | 480 kts | 131° |
| 2026-05-04 14:42 | 42.93793 | 17.16709 | 35116 ft | 480 kts | 131° |
| 2026-05-04 14:43 | 42.89327 | 17.23488 | 35112 ft | 481 kts | 131° |
| 2026-05-04 14:43 | 42.84858 | 17.30254 | 35119 ft | 481 kts | 131° |
| 2026-05-04 14:44 | 42.80374 | 17.37027 | 35117 ft | 481 kts | 131° |
| 2026-05-04 14:44 | 42.75882 | 17.43796 | 35122 ft | 482 kts | 131° |
| 2026-05-04 14:45 | 42.71385 | 17.50559 | 35133 ft | 482 kts | 131° |
| 2026-05-04 14:45 | 42.66873 | 17.57328 | 35123 ft | 483 kts | 131° |
| 2026-05-04 14:46 | 42.62368 | 17.64069 | 35124 ft | 484 kts | 131° |
| 2026-05-04 14:46 | 42.57841 | 17.70829 | 35125 ft | 484 kts | 131° |
| 2026-05-04 14:47 | 42.53301 | 17.77591 | 35129 ft | 485 kts | 131° |
| 2026-05-04 14:47 | 42.48751 | 17.84353 | 35126 ft | 486 kts | 131° |
| 2026-05-04 14:48 | 42.44225 | 17.91065 | 35129 ft | 486 kts | 131° |
| 2026-05-04 14:48 | 42.39657 | 17.97821 | 35122 ft | 487 kts | 131° |
| 2026-05-04 14:49 | 42.35084 | 18.04571 | 35121 ft | 487 kts | 131° |
| 2026-05-04 14:49 | 42.30502 | 18.11318 | 35132 ft | 487 kts | 131° |
| 2026-05-04 14:50 | 42.25919 | 18.18049 | 35132 ft | 487 kts | 131° |
| 2026-05-04 14:50 | 42.21327 | 18.24780 | 35124 ft | 487 kts | 131° |
| 2026-05-04 14:51 | 42.16739 | 18.31490 | 35123 ft | 487 kts | 131° |
| 2026-05-04 14:51 | 42.12144 | 18.38193 | 35117 ft | 486 kts | 131° |
| 2026-05-04 14:52 | 42.07549 | 18.44882 | 35114 ft | 486 kts | 131° |
| 2026-05-04 14:52 | 42.02952 | 18.51559 | 35117 ft | 487 kts | 131° |
| 2026-05-04 14:53 | 41.98345 | 18.58237 | 35108 ft | 487 kts | 131° |
| 2026-05-04 14:53 | 41.93727 | 18.64915 | 35114 ft | 488 kts | 131° |
| 2026-05-04 14:54 | 41.89282 | 18.71775 | 35111 ft | 487 kts | 127° |
| 2026-05-04 14:54 | 41.85026 | 18.78846 | 35123 ft | 487 kts | 127° |
| 2026-05-04 14:55 | 41.80766 | 18.85938 | 35106 ft | 489 kts | 127° |
| 2026-05-04 14:55 | 41.76469 | 18.93002 | 35111 ft | 490 kts | 127° |
| 2026-05-04 14:56 | 41.72143 | 19.00058 | 35101 ft | 490 kts | 127° |
| 2026-05-04 14:56 | 41.67841 | 19.07048 | 35106 ft | 491 kts | 127° |
| 2026-05-04 14:57 | 41.63490 | 19.14106 | 35118 ft | 492 kts | 127° |
| 2026-05-04 14:57 | 41.59137 | 19.21153 | 35101 ft | 492 kts | 127° |
| 2026-05-04 14:58 | 41.54778 | 19.28193 | 35110 ft | 492 kts | 127° |
| 2026-05-04 14:58 | 41.51122 | 19.34086 | 35113 ft | 492 kts | 127° |
| 2026-05-04 14:59 | 41.46052 | 19.42238 | 35120 ft | 492 kts | 127° |
| 2026-05-04 15:00 | 41.39492 | 19.52754 | 35125 ft | 492 kts | 127° |
| 2026-05-04 15:00 | 41.35120 | 19.59741 | 35127 ft | 491 kts | 127° |
| 2026-05-04 15:01 | 41.28559 | 19.70199 | 35115 ft | 491 kts | 127° |
| 2026-05-04 15:01 | 41.24184 | 19.77152 | 35129 ft | 490 kts | 127° |
| 2026-05-04 15:02 | 41.19802 | 19.84100 | 35138 ft | 491 kts | 127° |
| 2026-05-04 15:02 | 41.15416 | 19.91038 | 35127 ft | 491 kts | 127° |
| 2026-05-04 15:03 | 41.11023 | 19.97971 | 35118 ft | 490 kts | 127° |
| 2026-05-04 15:03 | 41.06634 | 20.04882 | 35110 ft | 490 kts | 127° |
| 2026-05-04 15:04 | 41.02271 | 20.11737 | 35107 ft | 489 kts | 127° |
| 2026-05-04 15:04 | 40.97886 | 20.18611 | 35121 ft | 488 kts | 127° |
| 2026-05-04 15:05 | 40.93500 | 20.25472 | 35110 ft | 488 kts | 127° |
| 2026-05-04 15:05 | 40.89113 | 20.32319 | 35104 ft | 488 kts | 127° |
| 2026-05-04 15:06 | 40.85433 | 20.38048 | 35114 ft | 488 kts | 127° |
| 2026-05-04 15:07 | 40.78868 | 20.48247 | 35136 ft | 488 kts | 127° |
| 2026-05-04 15:07 | 40.74470 | 20.55059 | 35109 ft | 487 kts | 127° |
| 2026-05-04 15:08 | 40.70086 | 20.61834 | 35106 ft | 487 kts | 127° |
| 2026-05-04 15:08 | 40.65688 | 20.68617 | 35099 ft | 487 kts | 127° |
| 2026-05-04 15:09 | 40.61291 | 20.75384 | 35109 ft | 487 kts | 127° |
| 2026-05-04 15:09 | 40.56878 | 20.82161 | 35129 ft | 488 kts | 127° |
| 2026-05-04 15:10 | 40.50188 | 20.92297 | 35103 ft | 492 kts | 132° |
| 2026-05-04 15:11 | 40.42486 | 21.01287 | 35096 ft | 495 kts | 137° |
| 2026-05-04 15:11 | 40.37248 | 21.07169 | 35101 ft | 495 kts | 137° |
| 2026-05-04 15:12 | 40.32054 | 21.13097 | 35106 ft | 496 kts | 136° |
| 2026-05-04 15:12 | 40.26872 | 21.19064 | 35109 ft | 496 kts | 136° |
| 2026-05-04 15:13 | 40.21694 | 21.25027 | 35096 ft | 496 kts | 136° |
| 2026-05-04 15:13 | 40.16513 | 21.30977 | 35083 ft | 495 kts | 136° |
| 2026-05-04 15:14 | 40.11336 | 21.36906 | 35097 ft | 495 kts | 136° |
| 2026-05-04 15:14 | 40.06156 | 21.42824 | 35097 ft | 495 kts | 136° |
| 2026-05-04 15:15 | 40.00973 | 21.48735 | 35098 ft | 495 kts | 136° |
| 2026-05-04 15:15 | 39.95782 | 21.54641 | 35098 ft | 495 kts | 136° |
| 2026-05-04 15:16 | 39.87988 | 21.63486 | 35091 ft | 495 kts | 137° |
| 2026-05-04 15:17 | 39.80214 | 21.72279 | 35089 ft | 496 kts | 137° |
| 2026-05-04 15:17 | 39.72391 | 21.81102 | 35111 ft | 497 kts | 137° |
| 2026-05-04 15:18 | 39.67162 | 21.86984 | 35096 ft | 498 kts | 137° |
| 2026-05-04 15:19 | 39.59294 | 21.95812 | 35087 ft | 499 kts | 137° |
| 2026-05-04 15:19 | 39.51403 | 22.04636 | 35085 ft | 500 kts | 137° |
| 2026-05-04 15:20 | 39.46137 | 22.10510 | 35081 ft | 500 kts | 137° |
| 2026-05-04 15:20 | 39.40861 | 22.16384 | 35095 ft | 500 kts | 137° |
| 2026-05-04 15:21 | 39.35581 | 22.22249 | 35080 ft | 501 kts | 137° |
| 2026-05-04 15:22 | 39.27660 | 22.31025 | 35091 ft | 500 kts | 137° |
| 2026-05-04 15:22 | 39.19727 | 22.39788 | 35103 ft | 500 kts | 137° |
| 2026-05-04 15:23 | 39.14438 | 22.45616 | 35104 ft | 500 kts | 138° |
| 2026-05-04 15:23 | 39.09143 | 22.51438 | 35093 ft | 501 kts | 138° |
| 2026-05-04 15:24 | 38.98535 | 22.63066 | 35107 ft | 501 kts | 138° |
| 2026-05-04 15:25 | 38.95871 | 22.65979 | 34972 ft | 504 kts | 138° |
| 2026-05-04 15:25 | 38.93188 | 22.68910 | 34390 ft | 508 kts | 138° |
| 2026-05-04 15:25 | 38.90498 | 22.71845 | 33737 ft | 508 kts | 138° |
| 2026-05-04 15:26 | 38.85108 | 22.77717 | 32341 ft | 509 kts | 138° |
| 2026-05-04 15:26 | 38.82407 | 22.80654 | 31652 ft | 509 kts | 138° |
| 2026-05-04 15:26 | 38.76985 | 22.86543 | 30274 ft | 510 kts | 138° |
| 2026-05-04 15:27 | 38.74291 | 22.89463 | 29631 ft | 506 kts | 138° |
| 2026-05-04 15:27 | 38.68964 | 22.95229 | 28460 ft | 496 kts | 138° |
| 2026-05-04 15:28 | 38.63754 | 23.00858 | 27363 ft | 485 kts | 138° |
| 2026-05-04 15:28 | 38.61188 | 23.03626 | 26832 ft | 480 kts | 138° |
| 2026-05-04 15:28 | 38.56135 | 23.09071 | 25765 ft | 470 kts | 138° |
| 2026-05-04 15:29 | 38.53650 | 23.11745 | 25239 ft | 466 kts | 138° |
| 2026-05-04 15:30 | 38.43941 | 23.22169 | 23054 ft | 446 kts | 138° |
| 2026-05-04 15:30 | 38.36963 | 23.29622 | 21493 ft | 427 kts | 139° |
| 2026-05-04 15:31 | 38.32436 | 23.34270 | 20522 ft | 416 kts | 140° |
| 2026-05-04 15:31 | 38.30163 | 23.36583 | 19981 ft | 408 kts | 140° |
| 2026-05-04 15:32 | 38.23791 | 23.42997 | 18399 ft | 379 kts | 140° |
| 2026-05-04 15:32 | 38.19609 | 23.47102 | 17320 ft | 380 kts | 140° |
| 2026-05-04 15:33 | 38.15014 | 23.50382 | 16292 ft | 383 kts | 161° |
| 2026-05-04 15:34 | 38.07229 | 23.52828 | 14517 ft | 386 kts | 165° |
| 2026-05-04 15:34 | 38.04613 | 23.53602 | 13925 ft | 387 kts | 165° |
| 2026-05-04 15:34 | 37.99394 | 23.55160 | 12917 ft | 379 kts | 165° |
| 2026-05-04 15:35 | 37.94372 | 23.56697 | 12128 ft | 360 kts | 165° |
| 2026-05-04 15:35 | 37.91980 | 23.57437 | 11736 ft | 347 kts | 165° |
| 2026-05-04 15:35 | 37.89678 | 23.58157 | 11343 ft | 336 kts | 165° |
| 2026-05-04 15:36 | 37.85275 | 23.59553 | 10603 ft | 317 kts | 165° |
| 2026-05-04 15:36 | 37.83159 | 23.60231 | 10224 ft | 310 kts | 167° |
| 2026-05-04 15:36 | 37.81043 | 23.60346 | 9796 ft | 303 kts | 192° |
| 2026-05-04 15:37 | 37.79070 | 23.59579 | 9299 ft | 298 kts | 203° |
| 2026-05-04 15:37 | 37.77138 | 23.58637 | 8779 ft | 297 kts | 205° |
| 2026-05-04 15:37 | 37.75226 | 23.57686 | 8271 ft | 296 kts | 205° |
| 2026-05-04 15:37 | 37.73308 | 23.56764 | 7761 ft | 295 kts | 199° |
| 2026-05-04 15:38 | 37.71259 | 23.56571 | 7243 ft | 299 kts | 171° |
| 2026-05-04 15:38 | 37.69350 | 23.57523 | 6862 ft | 294 kts | 143° |
| 2026-05-04 15:38 | 37.67998 | 23.59381 | 6523 ft | 287 kts | 115° |
| 2026-05-04 15:38 | 37.67455 | 23.61751 | 6193 ft | 279 kts | 87° |
| 2026-05-04 15:39 | 37.67640 | 23.64133 | 5968 ft | 270 kts | 76° |
| 2026-05-04 15:39 | 37.67965 | 23.66456 | 5703 ft | 266 kts | 75° |
| 2026-05-04 15:39 | 37.68658 | 23.70904 | 5211 ft | 251 kts | 70° |
| 2026-05-04 15:40 | 37.69539 | 23.72697 | 4982 ft | 238 kts | 36° |
| 2026-05-04 15:40 | 37.70859 | 23.73899 | 4806 ft | 232 kts | 33° |
| 2026-05-04 15:40 | 37.72159 | 23.75091 | 4599 ft | 229 kts | 32° |
| 2026-05-04 15:40 | 37.73428 | 23.76246 | 4435 ft | 219 kts | 33° |
| 2026-05-04 15:41 | 37.74618 | 23.77363 | 4311 ft | 208 kts | 34° |
| 2026-05-04 15:41 | 37.75741 | 23.78433 | 4157 ft | 195 kts | 34° |
| 2026-05-04 15:41 | 37.76784 | 23.79431 | 4103 ft | 185 kts | 33° |
| 2026-05-04 15:41 | 37.77832 | 23.80431 | 3889 ft | 190 kts | 34° |
| 2026-05-04 15:42 | 37.78881 | 23.81434 | 3648 ft | 188 kts | 34° |
| 2026-05-04 15:42 | 37.79909 | 23.82420 | 3416 ft | 181 kts | 33° |
| 2026-05-04 15:42 | 37.80881 | 23.83352 | 3175 ft | 171 kts | 33° |
| 2026-05-04 15:42 | 37.81819 | 23.84247 | 2957 ft | 169 kts | 34° |
| 2026-05-04 15:43 | 37.82765 | 23.85150 | 2740 ft | 172 kts | 34° |
| 2026-05-04 15:43 | 37.83715 | 23.86059 | 2491 ft | 169 kts | 34° |
| 2026-05-04 15:43 | 37.84637 | 23.86943 | 2260 ft | 164 kts | 35° |
| 2026-05-04 15:43 | 37.85530 | 23.87798 | 2054 ft | 158 kts | 34° |
| 2026-05-04 15:44 | 37.86399 | 23.88627 | 1836 ft | 156 kts | 34° |
| 2026-05-04 15:44 | 37.87256 | 23.89447 | 1672 ft | 150 kts | 34° |
| 2026-05-04 15:44 | 37.88065 | 23.90223 | 1464 ft | 139 kts | 33° |
| 2026-05-04 15:44 | 37.88851 | 23.90972 | 1237 ft | 143 kts | 34° |
| 2026-05-04 15:45 | 37.89633 | 23.91718 | 1031 ft | 141 kts | 37° |
| 2026-05-04 15:45 | 37.90414 | 23.92467 | 841 ft | 141 kts | 37° |
| 2026-05-04 15:45 | 37.91199 | 23.93223 | 641 ft | 142 kts | 40° |
| 2026-05-04 15:45 | 37.91990 | 23.93966 | 470 ft | 141 kts | 40° |
| 2026-05-04 15:46 | 37.92769 | 23.94711 | 326 ft | 138 kts | 41° |
| 2026-05-04 15:46 | 37.93489 | 23.95407 | 286 ft | 119 kts | 37° |
| 2026-05-04 15:46 | 37.93994 | 23.95891 | 280 ft | 48 kts | 37° |
| 2026-05-04 15:46 | 37.94177 | 23.95993 | 283 ft | 19 kts | 13° |
| 2026-05-04 15:47 | 37.94255 | 23.96010 | 294 ft | 9 kts | 8° |
| 2026-05-04 15:47 | 37.94313 | 23.95997 | 296 ft | 9 kts | 322° |
| 2026-05-04 15:47 | 37.94341 | 23.95931 | 298 ft | 8 kts | 294° |
| 2026-05-04 15:47 | 37.94362 | 23.95865 | 298 ft | 8 kts | 282° |
| 2026-05-04 15:48 | 37.94345 | 23.95800 | 301 ft | 8 kts | 229° |
| 2026-05-04 15:48 | 37.94303 | 23.95756 | 298 ft | 8 kts | 219° |
| 2026-05-04 15:48 | 37.94220 | 23.95679 | 299 ft | 7 kts | 217° |
| 2026-05-04 15:49 | 37.94182 | 23.95643 | 300 ft | 7 kts | 217° |
| 2026-05-04 15:49 | 37.94141 | 23.95604 | 300 ft | 9 kts | 217° |
| 2026-05-04 15:49 | 37.94081 | 23.95546 | 299 ft | 12 kts | 217° |
| 2026-05-04 15:49 | 37.94011 | 23.95480 | 299 ft | 12 kts | 217° |
| 2026-05-04 15:50 | 37.93943 | 23.95417 | 301 ft | 12 kts | 216° |
| 2026-05-04 15:50 | 37.93906 | 23.95367 | 301 ft | 12 kts | 237° |
| 2026-05-04 15:50 | 37.93874 | 23.95273 | 301 ft | 11 kts | 250° |
| 2026-05-04 15:50 | 37.93835 | 23.95187 | 299 ft | 11 kts | 226° |
| 2026-05-04 15:51 | 37.93764 | 23.95116 | 301 ft | 10 kts | 217° |
| 2026-05-04 15:51 | 37.93714 | 23.95069 | 302 ft | 8 kts | 217° |
| 2026-05-04 15:51 | 37.93672 | 23.95028 | 300 ft | 8 kts | 217° |
| 2026-05-04 15:51 | 37.93655 | 23.95002 | 301 ft | 5 kts | 255° |
| 2026-05-04 15:52 | 37.93669 | 23.94965 | 300 ft | 5 kts | 303° |
| 2026-05-04 15:52 | 37.93688 | 23.94934 | 302 ft | 1 kts | 308° |
| 2026-05-04 15:52 | 37.93691 | 23.94929 | 300 ft | 0 kts | 308° |